createdAt,value
2018-06-19T00:01:24.268Z,51.90
2018-06-19T00:03:54.128Z,51.27
2018-06-19T00:06:23.838Z,51.95
2018-06-19T00:08:53.717Z,52.28
2018-06-19T00:11:23.484Z,51.64
2018-06-19T00:13:53.240Z,51.84
2018-06-19T00:16:22.832Z,51.96
2018-06-19T00:18:55.919Z,52.33
2018-06-19T00:21:34.241Z,52.08
2018-06-19T00:24:07.500Z,53.01
2018-06-19T00:26:37.169Z,52.80
2018-06-19T00:29:06.852Z,52.87
2018-06-19T00:34:39.380Z,52.16
2018-06-19T00:37:09.065Z,53.57
2018-06-19T00:39:38.720Z,52.74
2018-06-19T00:42:08.621Z,52.46
2018-06-19T00:44:38.271Z,52.53
2018-06-19T00:47:07.628Z,52.33
2018-06-19T00:52:12.567Z,52.63
2018-06-19T00:54:42.611Z,52.82
2018-06-19T00:57:12.578Z,51.42
2018-06-19T00:59:42.539Z,51.48
2018-06-19T01:02:12.585Z,50.59
2018-06-19T01:04:42.618Z,49.95
2018-06-19T01:07:12.556Z,49.24
2018-06-19T01:09:42.762Z,49.57
2018-06-19T01:12:12.596Z,49.90
2018-06-19T01:14:42.931Z,49.27
2018-06-19T01:17:12.766Z,49.63
2018-06-19T01:19:42.780Z,49.69
2018-06-19T01:22:12.659Z,50.30
2018-06-19T01:24:42.640Z,51.41
2018-06-19T01:27:12.725Z,51.13
2018-06-19T01:29:42.799Z,50.77
2018-06-19T01:32:12.909Z,50.84
2018-06-19T01:34:42.982Z,50.48
2018-06-19T01:37:12.966Z,50.12
2018-06-19T01:39:42.980Z,51.12
2018-06-19T01:42:13.044Z,51.03
2018-06-19T01:44:43.089Z,51.83
2018-06-19T01:47:13.129Z,51.79
2018-06-19T01:49:43.137Z,52.58
2018-06-19T01:52:13.327Z,52.43
2018-06-19T01:54:43.418Z,52.96
2018-06-19T01:57:13.249Z,52.44
2018-06-19T01:59:43.439Z,52.57
2018-06-19T02:02:13.494Z,52.07
2018-06-19T02:04:43.473Z,51.76
2018-06-19T02:07:13.640Z,52.52
2018-06-19T02:09:43.493Z,52.80
2018-06-19T02:12:13.618Z,52.87
2018-06-19T02:14:43.724Z,53.38
2018-06-19T02:17:13.679Z,52.41
2018-06-19T02:22:18.646Z,52.29
2018-06-19T02:24:48.871Z,52.26
2018-06-19T02:27:18.471Z,52.07
2018-06-19T02:29:48.392Z,52.81
2018-06-19T02:32:18.198Z,53.16
2018-06-19T02:34:51.605Z,53.35
2018-06-19T02:37:21.719Z,52.63
2018-06-19T02:39:55.241Z,53.35
2018-06-19T02:42:24.984Z,53.40
2018-06-19T02:44:54.657Z,53.23
2018-06-19T02:47:24.653Z,53.03
2018-06-19T02:49:54.436Z,52.87
2018-06-19T02:52:24.094Z,52.23
2018-06-19T02:54:54.316Z,52.10
2018-06-19T02:57:24.087Z,52.32
2018-06-19T02:59:53.724Z,52.18
2018-06-19T03:02:23.422Z,51.99
2018-06-19T03:04:53.177Z,52.49
2018-06-19T03:07:25.853Z,52.76
2018-06-19T03:09:55.553Z,53.24
2018-06-19T03:12:25.265Z,54.02
2018-06-19T03:14:54.909Z,53.92
2018-06-19T03:17:24.547Z,53.59
2018-06-19T03:19:54.222Z,52.85
2018-06-19T03:22:23.877Z,53.28
2018-06-19T03:24:54.338Z,52.89
2018-06-19T03:27:24.346Z,53.13
2018-06-19T03:29:55.543Z,53.44
2018-06-19T03:32:25.440Z,53.09
2018-06-19T03:34:55.688Z,52.02
2018-06-19T03:37:25.947Z,51.78
2018-06-19T03:39:55.300Z,53.04
2018-06-19T03:42:26.261Z,53.41
2018-06-19T03:44:59.817Z,52.74
2018-06-19T03:47:29.565Z,52.29
2018-06-19T03:49:59.269Z,52.47
2018-06-19T03:52:28.925Z,51.87
2018-06-19T03:54:59.686Z,50.88
2018-06-19T03:57:29.673Z,50.38
2018-06-19T04:00:00.479Z,49.28
2018-06-19T04:02:31.050Z,49.84
2018-06-19T04:05:01.289Z,47.23
2018-06-19T04:07:31.400Z,46.10
2018-06-19T04:10:01.125Z,46.64
2018-06-19T04:12:30.873Z,46.34
2018-06-19T04:15:02.263Z,45.66
2018-06-19T04:17:33.748Z,45.25
2018-06-19T04:20:04.439Z,47.40
2018-06-19T04:22:35.064Z,46.79
2018-06-19T04:25:05.766Z,46.46
2018-06-19T04:27:36.454Z,47.50
2018-06-19T04:30:06.331Z,46.62
2018-06-19T04:32:35.946Z,46.28
2018-06-19T04:35:06.002Z,43.81
2018-06-19T04:37:35.651Z,45.13
2018-06-19T04:40:05.627Z,43.59
2018-06-19T04:42:35.728Z,44.20
2018-06-19T04:45:06.116Z,42.04
2018-06-19T04:47:35.741Z,42.55
2018-06-19T04:50:05.441Z,43.25
2018-06-19T04:52:35.163Z,42.89
2018-06-19T04:55:05.232Z,41.44
2018-06-19T04:57:34.972Z,42.62
2018-06-19T05:00:04.867Z,41.59
2018-06-19T05:02:34.617Z,41.39
2018-06-19T05:05:04.543Z,41.05
2018-06-19T05:07:34.296Z,41.80
2018-06-19T05:10:04.057Z,40.58
2018-06-19T05:12:33.684Z,41.77
2018-06-19T05:15:03.377Z,39.74
2018-06-19T05:17:33.728Z,40.42
2018-06-19T05:20:03.471Z,39.34
2018-06-19T05:22:33.214Z,40.26
2018-06-19T05:25:02.958Z,39.48
2018-06-19T05:27:32.471Z,39.95
2018-06-19T05:30:02.156Z,39.91
2018-06-19T05:32:32.016Z,39.82
2018-06-19T05:35:01.780Z,39.35
2018-06-19T05:37:31.406Z,40.73
2018-06-19T05:40:01.150Z,40.84
2018-06-19T05:42:31.149Z,39.52
2018-06-19T05:50:11.783Z,39.09
2018-06-19T05:52:41.385Z,39.71
2018-06-19T05:55:11.364Z,38.03
2018-06-19T05:57:41.348Z,38.59
2018-06-19T06:00:11.960Z,37.61
2018-06-19T06:02:41.590Z,38.13
2018-06-19T06:05:11.227Z,38.50
2018-06-19T06:07:41.015Z,39.19
2018-06-19T06:10:10.720Z,36.97
2018-06-19T06:12:40.316Z,35.54
2018-06-19T06:15:10.064Z,36.10
2018-06-19T06:17:39.912Z,35.05
2018-06-19T06:20:09.554Z,36.84
2018-06-19T06:22:39.212Z,34.48
2018-06-19T06:25:08.874Z,33.65
2018-06-19T06:27:38.525Z,35.04
2018-06-19T06:30:08.240Z,34.53
2018-06-19T06:32:37.864Z,35.92
2018-06-19T06:35:07.687Z,36.55
2018-06-19T06:37:37.542Z,35.09
2018-06-19T06:40:07.280Z,33.41
2018-06-19T06:42:36.912Z,33.53
2018-06-19T06:45:06.529Z,34.91
2018-06-19T06:47:36.220Z,33.48
2018-06-19T06:50:05.990Z,33.69
2018-06-19T06:52:35.621Z,34.08
2018-06-19T06:55:05.013Z,34.43
2018-06-19T07:00:15.837Z,32.49
2018-06-19T07:02:45.516Z,33.74
2018-06-19T07:05:15.222Z,33.13
2018-06-19T07:07:45.101Z,32.28
2018-06-19T07:10:14.719Z,34.25
2018-06-19T07:12:46.222Z,31.64
2018-06-19T07:15:15.683Z,31.39
2018-06-19T07:17:45.289Z,33.25
2018-06-19T07:20:15.285Z,33.09
2018-06-19T07:22:44.985Z,32.10
2018-06-19T07:25:14.702Z,32.85
2018-06-19T07:30:19.115Z,32.90
2018-06-19T07:32:48.773Z,32.04
2018-06-19T07:35:18.442Z,33.70
2018-06-19T07:37:48.137Z,33.76
2018-06-19T07:40:17.764Z,31.73
2018-06-19T07:42:47.518Z,32.10
2018-06-19T07:45:17.103Z,31.83
2018-06-19T07:47:46.808Z,31.53
2018-06-19T07:50:16.464Z,31.67
2018-06-19T07:52:46.299Z,31.81
2018-06-19T07:55:15.683Z,31.89
2018-06-19T07:57:45.221Z,32.20
2018-06-19T08:00:15.028Z,32.65
2018-06-19T08:02:44.648Z,31.60
2018-06-19T08:05:14.222Z,32.53
2018-06-19T08:07:44.003Z,32.14
2018-06-19T08:10:14.069Z,33.34
2018-06-19T08:12:43.737Z,32.66
2018-06-19T08:15:13.461Z,32.53
2018-06-19T08:17:43.116Z,31.01
2018-06-19T08:20:13.610Z,32.73
2018-06-19T08:22:43.333Z,30.65
2018-06-19T08:25:12.995Z,30.02
2018-06-19T08:27:42.737Z,32.83
2018-06-19T08:30:12.405Z,31.53
2018-06-19T08:35:17.566Z,31.23
2018-06-19T08:37:47.265Z,32.74
2018-06-19T08:40:17.036Z,31.75
2018-06-19T08:42:46.722Z,31.72
2018-06-19T08:45:16.443Z,32.30
2018-06-19T08:47:46.136Z,30.91
2018-06-19T08:50:15.721Z,29.28
2018-06-19T08:52:45.297Z,30.14
2018-06-19T08:57:49.794Z,31.33
2018-06-19T09:00:19.395Z,32.25
2018-06-19T09:02:49.069Z,31.11
2018-06-19T09:05:18.703Z,29.77
2018-06-19T09:07:51.548Z,29.34
2018-06-19T09:10:21.356Z,31.17
2018-06-19T09:12:51.083Z,30.77
2018-06-19T09:15:20.412Z,29.48
2018-06-19T09:17:49.996Z,29.10
2018-06-19T09:20:19.404Z,30.22
2018-06-19T09:22:48.913Z,29.74
2018-06-19T09:25:18.609Z,29.36
2018-06-19T09:27:48.343Z,30.00
2018-06-19T09:30:18.453Z,29.32
2018-06-19T09:32:48.232Z,31.95
2018-06-19T09:35:17.858Z,29.83
2018-06-19T09:37:47.481Z,30.20
2018-06-19T09:40:17.048Z,29.42
2018-06-19T09:42:46.631Z,29.58
2018-06-19T09:45:16.307Z,29.78
2018-06-19T09:47:46.186Z,29.50
2018-06-19T09:50:15.885Z,29.87
2018-06-19T09:52:45.585Z,30.91
2018-06-19T09:55:15.351Z,29.26
2018-06-19T09:57:45.021Z,29.86
2018-06-19T10:00:23.916Z,29.91
2018-06-19T10:02:53.600Z,30.38
2018-06-19T10:05:23.233Z,30.93
2018-06-19T10:07:52.974Z,30.66
2018-06-19T10:10:22.691Z,29.85
2018-06-19T10:12:52.482Z,29.96
2018-06-19T10:15:22.159Z,30.94
2018-06-19T10:17:51.566Z,31.59
2018-06-19T10:20:21.221Z,29.13
2018-06-19T10:22:51.428Z,30.10
2018-06-19T10:25:21.079Z,28.84
2018-06-19T10:27:50.765Z,31.02
2018-06-19T10:30:20.523Z,29.78
2018-06-19T10:32:51.067Z,30.87
2018-06-19T10:35:20.833Z,31.73
2018-06-19T10:37:50.638Z,29.34
2018-06-19T10:42:56.165Z,27.87
2018-06-19T10:45:25.891Z,29.13
2018-06-19T10:47:55.461Z,28.19
2018-06-19T10:50:25.167Z,28.27
2018-06-19T10:52:55.046Z,29.56
2018-06-19T10:55:24.877Z,26.16
2018-06-19T10:57:54.485Z,29.64
2018-06-19T11:00:24.245Z,28.56
2018-06-19T11:02:53.945Z,29.09
2018-06-19T11:05:23.683Z,28.21
2018-06-19T11:07:53.399Z,31.05
2018-06-19T11:10:28.792Z,28.37
2018-06-19T11:12:58.108Z,27.38
2018-06-19T11:15:27.738Z,29.08
2018-06-19T11:17:57.333Z,28.40
2018-06-19T11:20:27.076Z,26.54
2018-06-19T11:22:56.735Z,30.35
2018-06-19T11:28:01.323Z,27.55
2018-06-19T11:30:31.149Z,26.50
2018-06-19T11:33:00.912Z,27.27
2018-06-19T11:35:30.575Z,28.11
2018-06-19T11:38:00.171Z,25.20
2018-06-19T11:40:29.836Z,27.34
2018-06-19T11:42:59.490Z,30.08
2018-06-19T11:45:29.181Z,29.42
2018-06-19T11:47:58.901Z,29.01
2018-06-19T11:50:28.618Z,31.00
2018-06-19T11:52:58.276Z,27.36
2018-06-19T11:55:28.040Z,27.26
2018-06-19T11:57:57.679Z,26.78
2018-06-19T12:00:27.321Z,28.44
2018-06-19T12:02:56.636Z,25.97
2018-06-19T12:05:26.117Z,26.76
2018-06-19T12:07:55.463Z,26.99
2018-06-19T12:10:24.997Z,26.55
2018-06-19T12:12:54.701Z,28.11
2018-06-19T12:15:24.320Z,27.80
2018-06-19T12:17:54.184Z,28.10
2018-06-19T12:20:23.902Z,26.84
2018-06-19T12:22:53.684Z,28.35
2018-06-19T12:25:23.590Z,28.19
2018-06-19T12:27:53.429Z,25.16
2018-06-19T12:30:22.986Z,24.96
2018-06-19T12:32:52.550Z,26.58
2018-06-19T12:35:22.225Z,28.73
2018-06-19T12:37:51.871Z,27.15
2018-06-19T12:40:21.734Z,25.47
2018-06-19T12:45:27.697Z,28.10
2018-06-19T12:47:57.392Z,25.87
2018-06-19T12:53:25.506Z,27.24
2018-06-19T12:56:06.254Z,24.14
2018-06-19T12:58:35.860Z,23.44
2018-06-19T13:01:05.616Z,23.08
2018-06-19T13:03:47.540Z,24.90
2018-06-19T13:06:31.592Z,25.96
2018-06-19T13:09:01.329Z,27.69
2018-06-19T13:11:32.543Z,26.75
2018-06-19T13:14:44.696Z,26.73
2018-06-19T13:17:25.684Z,27.72
2018-06-19T13:20:06.648Z,28.76
2018-06-19T13:22:36.393Z,26.18
2018-06-19T13:27:41.951Z,24.36
2018-06-19T13:30:22.676Z,25.80
2018-06-19T13:32:52.374Z,24.82
2018-06-19T13:35:22.119Z,25.59
2018-06-19T13:37:51.796Z,25.96
2018-06-19T13:41:26.367Z,25.64
2018-06-19T13:44:08.747Z,27.97
2018-06-19T13:46:38.365Z,29.11
2018-06-19T13:49:08.069Z,28.87
2018-06-19T13:51:38.082Z,28.39
2018-06-19T13:54:07.734Z,26.83
2018-06-19T13:57:13.458Z,27.50
2018-06-19T13:59:43.080Z,25.39
2018-06-19T14:02:12.769Z,26.09
2018-06-19T14:04:42.370Z,26.78
2018-06-19T14:07:12.008Z,25.38
2018-06-19T14:12:58.300Z,24.91
2018-06-19T14:15:29.104Z,24.94
2018-06-19T14:17:58.682Z,26.20
2018-06-19T14:20:28.409Z,25.85
2018-06-19T14:22:58.650Z,28.00
2018-06-19T14:25:28.506Z,28.82
2018-06-19T14:27:58.239Z,28.61
2018-06-19T14:30:28.345Z,30.25
2018-06-19T14:32:58.113Z,26.91
2018-06-19T14:35:27.849Z,28.27
2018-06-19T14:37:57.631Z,29.46
2018-06-19T14:40:27.302Z,26.72
2018-06-19T14:42:57.985Z,25.65
2018-06-19T14:45:27.356Z,25.45
2018-06-19T14:47:56.857Z,26.12
2018-06-19T14:50:26.804Z,25.80
2018-06-19T14:52:56.615Z,25.51
2018-06-19T14:55:26.567Z,26.89
2018-06-19T14:57:56.571Z,25.47
2018-06-19T15:00:26.452Z,24.93
2018-06-19T15:02:56.471Z,27.30
2018-06-19T15:05:26.137Z,24.70
2018-06-19T15:07:55.905Z,25.46
2018-06-19T15:10:25.932Z,24.91
2018-06-19T15:12:55.234Z,24.69
2018-06-19T15:15:24.924Z,22.65
2018-06-19T15:17:54.596Z,23.54
2018-06-19T15:20:24.196Z,23.18
2018-06-19T15:22:54.177Z,24.36
2018-06-19T15:25:23.944Z,24.68
2018-06-19T15:27:53.647Z,24.63
2018-06-19T15:30:23.267Z,24.83
2018-06-19T15:32:53.050Z,27.20
2018-06-19T15:35:22.682Z,24.05
2018-06-19T15:37:52.425Z,23.61
2018-06-19T15:40:22.246Z,24.12
2018-06-19T15:42:52.119Z,24.46
2018-06-19T15:45:21.704Z,24.49
2018-06-19T15:47:51.608Z,24.19
2018-06-19T15:50:21.163Z,23.84
2018-06-19T15:52:51.187Z,23.81
2018-06-19T15:55:21.018Z,24.90
2018-06-19T15:57:50.859Z,24.76
2018-06-19T16:00:20.537Z,25.66
2018-06-19T16:02:50.141Z,25.70
2018-06-19T16:05:19.760Z,25.91
2018-06-19T16:07:54.736Z,25.83
2018-06-19T16:10:24.420Z,26.39
2018-06-19T16:12:54.733Z,25.58
2018-06-19T16:15:24.354Z,26.06
2018-06-19T16:17:53.998Z,26.31
2018-06-19T16:20:23.856Z,25.21
2018-06-19T16:22:53.608Z,25.08
2018-06-19T16:25:23.446Z,25.33
2018-06-19T16:27:53.236Z,25.46
2018-06-19T16:30:23.076Z,24.72
2018-06-19T16:32:52.709Z,25.86
2018-06-19T16:35:22.591Z,25.10
2018-06-19T16:37:52.356Z,25.75
2018-06-19T16:40:22.102Z,25.97
2018-06-19T16:42:51.769Z,26.31
2018-06-19T16:45:21.521Z,26.48
2018-06-19T16:47:51.223Z,27.39
2018-06-19T16:50:20.819Z,27.36
2018-06-19T16:52:51.223Z,27.31
2018-06-19T16:55:21.086Z,27.03
2018-06-19T16:57:50.979Z,25.94
2018-06-19T17:00:20.749Z,27.98
2018-06-19T17:02:50.391Z,28.62
2018-06-19T17:05:19.978Z,26.96
2018-06-19T17:07:49.947Z,28.31
2018-06-19T17:10:21.469Z,28.49
2018-06-19T17:12:51.560Z,27.67
2018-06-19T17:15:21.410Z,26.59
2018-06-19T17:17:51.075Z,25.81
2018-06-19T17:22:57.378Z,26.94
2018-06-19T17:25:26.973Z,26.21
2018-06-19T17:27:56.810Z,27.89
2018-06-19T17:30:26.634Z,27.43
2018-06-19T17:32:56.463Z,29.99
2018-06-19T17:35:26.163Z,30.46
2018-06-19T17:37:55.829Z,28.07
2018-06-19T17:40:27.707Z,29.78
2018-06-19T17:42:57.771Z,30.31
2018-06-19T17:45:27.539Z,30.90
2018-06-19T17:47:57.628Z,31.97
2018-06-19T17:50:28.223Z,32.74
2018-06-19T17:52:58.424Z,33.65
2018-06-19T17:55:28.005Z,31.76
2018-06-19T17:57:57.609Z,33.07
2018-06-19T18:00:27.173Z,33.60
2018-06-19T18:02:57.326Z,35.28
2018-06-19T18:05:27.032Z,34.80
2018-06-19T18:07:56.616Z,32.93
2018-06-19T18:10:39.123Z,33.74
2018-06-19T18:13:25.111Z,34.08
2018-06-19T18:16:10.628Z,34.37
2018-06-19T18:18:52.717Z,34.49
2018-06-19T18:24:19.531Z,34.40
2018-06-19T18:27:06.115Z,36.10
2018-06-19T18:29:51.346Z,36.89
2018-06-19T18:32:37.610Z,36.39
2018-06-19T18:38:19.323Z,37.93
2018-06-19T18:43:55.184Z,38.02
2018-06-19T18:46:41.712Z,38.80
2018-06-19T18:49:25.344Z,38.07
2018-06-19T18:52:09.842Z,38.44
2018-06-19T18:54:54.767Z,39.69
2018-06-19T18:57:33.308Z,39.88
2018-06-19T19:00:21.407Z,38.77
2018-06-19T19:03:08.337Z,39.94
2018-06-19T19:05:52.864Z,40.79
2018-06-19T19:08:34.517Z,40.19
2018-06-19T19:11:19.785Z,39.70
2018-06-19T19:16:53.352Z,40.75
2018-06-19T19:19:45.394Z,40.70
2018-06-19T19:22:30.168Z,41.26
2018-06-19T19:25:08.897Z,40.83
2018-06-19T19:27:56.223Z,40.70
2018-06-19T19:30:37.240Z,41.88
2018-06-19T19:36:04.305Z,40.53
2018-06-19T19:44:28.089Z,42.25
2018-06-19T19:49:14.395Z,42.06
2018-06-19T19:51:54.735Z,43.47
2018-06-19T19:54:36.667Z,44.08
2018-06-19T20:02:56.520Z,43.16
2018-06-19T20:05:34.788Z,43.25
2018-06-19T20:08:15.802Z,44.22
2018-06-19T20:11:11.906Z,43.88
2018-06-19T20:13:52.078Z,44.39
2018-06-19T20:16:26.248Z,44.35
2018-06-19T20:19:09.686Z,45.21
2018-06-19T20:21:54.049Z,44.87
2018-06-19T20:24:36.503Z,45.82
2018-06-19T20:27:18.279Z,44.91
2018-06-19T20:30:08.441Z,46.57
2018-06-19T20:32:51.050Z,45.60
2018-06-19T20:35:40.262Z,45.77
2018-06-19T20:38:20.345Z,45.39
2018-06-19T20:43:51.610Z,45.67
2018-06-19T20:46:33.441Z,44.95
2018-06-19T20:54:48.747Z,45.93
2018-06-19T20:57:35.779Z,44.38
2018-06-19T21:00:19.516Z,45.75
2018-06-19T21:05:43.007Z,45.88
2018-06-19T21:14:01.782Z,46.02
2018-06-19T21:16:50.828Z,46.30
2018-06-19T21:19:26.073Z,45.82
2018-06-19T21:30:32.296Z,46.70
2018-06-19T21:33:14.365Z,46.30
2018-06-19T21:36:04.415Z,47.18
2018-06-19T21:38:43.604Z,48.27
2018-06-19T21:41:20.422Z,48.42
2018-06-19T21:52:09.754Z,49.43
2018-06-19T21:54:50.241Z,49.09
2018-06-19T21:57:30.883Z,47.57
2018-06-19T22:00:18.744Z,48.40
2018-06-19T22:03:09.058Z,48.08
2018-06-19T22:05:58.973Z,47.09
2018-06-19T22:08:53.087Z,48.05
2018-06-19T22:14:18.488Z,48.03
2018-06-19T22:17:09.426Z,47.87
2018-06-19T22:22:51.115Z,48.66
2018-06-19T22:28:18.155Z,48.86
2018-06-19T22:36:34.170Z,48.84
2018-06-19T22:39:26.405Z,48.88
2018-06-19T22:42:17.463Z,49.58
2018-06-19T22:45:05.789Z,49.51
2018-06-19T22:47:45.081Z,49.34
2018-06-19T22:50:26.734Z,49.99
2018-06-19T22:53:07.087Z,49.45
2018-06-19T22:58:41.832Z,50.50
2018-06-19T23:01:25.392Z,50.66
2018-06-19T23:03:59.816Z,51.84
2018-06-19T23:06:39.124Z,50.79
2018-06-19T23:09:24.946Z,51.15
2018-06-19T23:17:35.463Z,52.05
2018-06-19T23:20:12.845Z,52.08
2018-06-19T23:25:58.621Z,52.70
2018-06-19T23:28:36.340Z,52.56
2018-06-19T23:31:14.831Z,52.01
2018-06-19T23:33:47.668Z,52.46
2018-06-19T23:36:19.987Z,52.39
2018-06-19T23:39:04.877Z,52.64
2018-06-19T23:41:40.751Z,53.00
2018-06-19T23:44:13.081Z,53.09
2018-06-19T23:46:45.315Z,52.62
2018-06-19T23:49:17.452Z,52.45
2018-06-19T23:51:53.361Z,53.39
2018-06-19T23:54:26.637Z,52.66
2018-06-19T23:57:00.378Z,53.03
2018-06-19T23:59:35.653Z,53.43
